Terminal Aerodrome Forecast
Issued by NWS St Louis, MO

Home | Current Version | Previous Version | Graphics & Text | Print | Product List | Glossary On
Versions: 1 2 3 4 5 6 7 8 9 10 11 12 13 14 15 16 17 18 19 20 21 22 23 24 25 26 27 28 29 30 31 32
000
FTUS43 KLSX 312100 AAA
TAFSTL
TAF AMD
KSTL 312100Z 3121/0124 15011KT P6SM SCT050
     FM010000 17008KT P6SM SCT250
     FM011500 19012KT P6SM VCSH BKN060 BKN120
     FM011700 19012KT P6SM SCT080
     FM012100 22012KT P6SM VCTS BKN045CB=

USA.gov is the U.S. government's official web portal to all federal, state and local government web resources and services.